Time;durP1;ratioP1;P1;durP2;ratioP2;P2;SDS_P1;SDS_P2;PMS_P1;PMS_P2;Temp;Humidity;BMP_temperature;BMP_pressure;BME280_temperature;BME280_humidity;BME280_pressure;Samples;Min_cycle;Max_cycle;Signal;HPM_P1;HPM_P2
2024/03/04 00:01:58;;;;;;;;;;;;;;;;;;4165522;28;20360;-57
2024/03/04 00:04:00;;;;;;;;;;;;;;;;;;4148527;28;19929;-57
2024/03/04 00:06:04;;;;;;;;;;;;;;;;;;4165697;28;20361;-57
2024/03/04 00:08:07;;;;;;;;;;;;;;;;;;4165569;28;20039;-57
2024/03/04 00:10:08;;;;;;;;;;;;;;;;;;4183420;28;19978;-57
2024/03/04 00:12:10;;;;;;;;;;;;;;;;;;4193340;28;19928;-57
2024/03/04 00:14:11;;;;;;;;;;;;;;;;;;4182195;28;19944;-57
2024/03/04 00:16:13;;;;;;;;;;;;;;;;;;4165451;28;19921;-57
2024/03/04 00:18:15;;;;;;;;;;;;;;;;;;4199661;28;19928;-57
2024/03/04 00:20:16;;;;;;;;;;;;;;;;;;4181887;28;19921;-57
2024/03/04 00:22:18;;;;;;;;;;;;;;;;;;4199018;28;19920;-56
2024/03/04 00:24:20;;;;;;;;;;;;;;;;;;4181491;28;19921;-57
2024/03/04 00:26:22;;;;;;;;;;;;;;;;;;4198623;28;20430;-56
2024/03/04 00:28:23;;;;;;;;;;;;;;;;;;4180434;28;19955;-57
2024/03/04 00:30:25;;;;;;;;;;;;;;;;;;4180246;28;19920;-57
2024/03/04 00:32:26;;;;;;;;;;;;;;;;;;4180452;28;20026;-57
2024/03/04 00:34:28;;;;;;;;;;;;;;;;;;4164168;28;19966;-57
2024/03/04 00:36:29;;;;;;;;;;;;;;;;;;4198777;28;19920;-57
2024/03/04 00:38:31;;;;;;;;;;;;;;;;;;4198983;28;19986;-57
2024/03/04 00:40:32;;;;;;;;;;;;;;;;;;4199234;28;19920;-57
2024/03/04 00:42:34;;;;;;;;;;;;;;;;;;4199398;28;20323;-57
2024/03/04 00:44:35;;;;;;;;;;;;;;;;;;4181130;28;19995;-57
2024/03/04 00:46:37;;;;;;;;;;;;;;;;;;4199485;28;19953;-57
2024/03/04 00:48:38;;;;;;;;;;;;;;;;;;4181359;28;19927;-57
2024/03/04 00:50:40;;;;;;;;;;;;;;;;;;4199215;28;19924;-57
2024/03/04 00:52:42;;;;;;;;;;;;;;;;;;4199169;28;19924;-57
2024/03/04 00:54:43;;;;;;;;;;;;;;;;;;4199244;28;19920;-57
2024/03/04 00:56:45;;;;;;;;;;;;;;;;;;4199081;28;19920;-57
2024/03/04 00:58:48;;;;;;;;;;;;;;;;;;4164772;28;19948;-57
2024/03/04 01:00:49;;;;;;;;;;;;;;;;;;4181143;28;19970;-56
2024/03/04 01:02:53;;;;;;;;;;;;;;;;;;4198792;28;20403;-57
2024/03/04 01:04:54;;;;;;;;;;;;;;;;;;4164114;28;19925;-57
2024/03/04 01:06:56;;;;;;;;;;;;;;;;;;4198970;28;20340;-56
2024/03/04 01:08:57;;;;;;;;;;;;;;;;;;4198346;28;20376;-57
2024/03/04 01:10:59;;;;;;;;;;;;;;;;;;4198254;28;19978;-56
2024/03/04 01:13:02;;;;;;;;;;;;;;;;;;4197987;28;19931;-57
2024/03/04 01:15:04;;;;;;;;;;;;;;;;;;4198477;28;19943;-57
2024/03/04 01:17:12;;;;;;;;;;;;;;;;;;4180574;28;19925;-57
2024/03/04 01:19:14;;;;;;;;;;;;;;;;;;4192512;28;20367;-57
2024/03/04 01:21:16;;;;;;;;;;;;;;;;;;4181878;28;19956;-57
2024/03/04 01:23:17;;;;;;;;;;;;;;;;;;4182023;28;19974;-58
2024/03/04 01:25:19;;;;;;;;;;;;;;;;;;4181982;28;19920;-58
2024/03/04 01:27:21;;;;;;;;;;;;;;;;;;4182315;28;19924;-57
2024/03/04 01:29:22;;;;;;;;;;;;;;;;;;4181956;28;19920;-57
2024/03/04 01:31:24;;;;;;;;;;;;;;;;;;4181514;28;19920;-57
2024/03/04 01:33:25;;;;;;;;;;;;;;;;;;4181221;28;19927;-57
2024/03/04 01:35:27;;;;;;;;;;;;;;;;;;4181321;28;20376;-58
2024/03/04 01:37:29;;;;;;;;;;;;;;;;;;4181556;28;19921;-57
2024/03/04 01:39:30;;;;;;;;;;;;;;;;;;4181316;28;19931;-58
2024/03/04 01:41:32;;;;;;;;;;;;;;;;;;4181630;28;19920;-57
2024/03/04 01:43:33;;;;;;;;;;;;;;;;;;4181693;28;20335;-57
2024/03/04 01:45:35;;;;;;;;;;;;;;;;;;4181495;28;19921;-57
2024/03/04 01:47:36;;;;;;;;;;;;;;;;;;4181974;28;19920;-57
2024/03/04 01:49:38;;;;;;;;;;;;;;;;;;4163802;28;19925;-56
2024/03/04 01:51:39;;;;;;;;;;;;;;;;;;4181921;28;19967;-58
2024/03/04 01:53:41;;;;;;;;;;;;;;;;;;4181580;28;19925;-57
2024/03/04 01:55:43;;;;;;;;;;;;;;;;;;4181681;28;19921;-57
2024/03/04 01:57:44;;;;;;;;;;;;;;;;;;4180163;28;20408;-57
2024/03/04 01:59:46;;;;;;;;;;;;;;;;;;4181675;28;19980;-57
2024/03/04 02:01:49;;;;;;;;;;;;;;;;;;4164166;28;19921;-57
2024/03/04 02:03:50;;;;;;;;;;;;;;;;;;4180393;28;19970;-57
2024/03/04 02:05:53;;;;;;;;;;;;;;;;;;4181602;28;19967;-57
2024/03/04 02:07:56;;;;;;;;;;;;;;;;;;4181767;28;19978;-58
2024/03/04 02:09:57;;;;;;;;;;;;;;;;;;4181688;28;20019;-58
2024/03/04 02:11:59;;;;;;;;;;;;;;;;;;4181336;28;19924;-56
2024/03/04 02:14:00;;;;;;;;;;;;;;;;;;4181654;28;19929;-57
2024/03/04 02:16:03;;;;;;;;;;;;;;;;;;4181473;28;19924;-58
2024/03/04 02:18:05;;;;;;;;;;;;;;;;;;4180870;28;20364;-58
2024/03/04 02:20:07;;;;;;;;;;;;;;;;;;4180722;28;19925;-58
2024/03/04 02:22:08;;;;;;;;;;;;;;;;;;4186301;28;20384;-58
2024/03/04 02:24:10;;;;;;;;;;;;;;;;;;4195675;28;20011;-56
2024/03/04 02:26:11;;;;;;;;;;;;;;;;;;4195928;28;19920;-57
2024/03/04 02:28:13;;;;;;;;;;;;;;;;;;4196302;28;19921;-58
2024/03/04 02:30:14;;;;;;;;;;;;;;;;;;4195896;28;19920;-57
2024/03/04 02:32:22;;;;;;;;;;;;;;;;;;4177860;28;19962;-56
2024/03/04 02:34:23;;;;;;;;;;;;;;;;;;4196549;28;19920;-58
2024/03/04 02:36:25;;;;;;;;;;;;;;;;;;4181648;28;19970;-57
2024/03/04 02:38:27;;;;;;;;;;;;;;;;;;4180146;28;19929;-57
2024/03/04 02:40:29;;;;;;;;;;;;;;;;;;4179540;28;19927;-57
2024/03/04 02:42:31;;;;;;;;;;;;;;;;;;4180448;28;19925;-56
2024/03/04 02:44:32;;;;;;;;;;;;;;;;;;4162370;28;19928;-57
2024/03/04 02:46:34;;;;;;;;;;;;;;;;;;4180525;28;19920;-57
2024/03/04 02:48:36;;;;;;;;;;;;;;;;;;4180449;28;19920;-56
2024/03/04 02:50:38;;;;;;;;;;;;;;;;;;4180619;28;19920;-56
2024/03/04 02:52:39;;;;;;;;;;;;;;;;;;4180552;28;19921;-57
2024/03/04 02:54:41;;;;;;;;;;;;;;;;;;4180803;28;20335;-58
2024/03/04 02:56:42;;;;;;;;;;;;;;;;;;4180539;28;19920;-57
2024/03/04 02:58:44;;;;;;;;;;;;;;;;;;4180739;28;19921;-56
2024/03/04 03:00:45;;;;;;;;;;;;;;;;;;4180309;28;19921;-56
2024/03/04 03:02:47;;;;;;;;;;;;;;;;;;4180285;28;19920;-57
2024/03/04 03:04:48;;;;;;;;;;;;;;;;;;4180160;28;20376;-57
2024/03/04 03:06:50;;;;;;;;;;;;;;;;;;4180682;28;19952;-57
2024/03/04 03:08:51;;;;;;;;;;;;;;;;;;4180619;28;19924;-57
2024/03/04 03:10:53;;;;;;;;;;;;;;;;;;4162839;28;19943;-56
2024/03/04 03:12:55;;;;;;;;;;;;;;;;;;4180617;28;19921;-55
2024/03/04 03:14:57;;;;;;;;;;;;;;;;;;4180747;28;19960;-57
2024/03/04 03:16:58;;;;;;;;;;;;;;;;;;4163043;28;19924;-57
2024/03/04 03:19:00;;;;;;;;;;;;;;;;;;4180763;28;19932;-56
2024/03/04 03:21:01;;;;;;;;;;;;;;;;;;4163011;28;19932;-56
2024/03/04 03:23:03;;;;;;;;;;;;;;;;;;4180450;28;19921;-57
2024/03/04 03:25:04;;;;;;;;;;;;;;;;;;4180643;28;19924;-57
2024/03/04 03:27:06;;;;;;;;;;;;;;;;;;4146366;28;20289;-56
2024/03/04 03:29:09;;;;;;;;;;;;;;;;;;4180532;28;19924;-57
2024/03/04 03:31:10;;;;;;;;;;;;;;;;;;4180313;28;19978;-57
2024/03/04 03:33:13;;;;;;;;;;;;;;;;;;4180456;28;19921;-56
2024/03/04 03:35:14;;;;;;;;;;;;;;;;;;4162708;28;20015;-57
2024/03/04 03:37:16;;;;;;;;;;;;;;;;;;4162542;28;19921;-55
2024/03/04 03:39:19;;;;;;;;;;;;;;;;;;4180428;28;19974;-57
2024/03/04 03:41:20;;;;;;;;;;;;;;;;;;4162569;28;19921;-57
2024/03/04 03:43:22;;;;;;;;;;;;;;;;;;4162788;28;19925;-58
2024/03/04 03:45:24;;;;;;;;;;;;;;;;;;4180107;28;19970;-57
2024/03/04 03:47:26;;;;;;;;;;;;;;;;;;4162896;28;19921;-56
2024/03/04 03:49:28;;;;;;;;;;;;;;;;;;4180416;28;19931;-57
2024/03/04 03:51:29;;;;;;;;;;;;;;;;;;4162627;28;19995;-56
2024/03/04 03:53:31;;;;;;;;;;;;;;;;;;4179970;28;19978;-57
2024/03/04 03:55:32;;;;;;;;;;;;;;;;;;4162427;28;19976;-57
2024/03/04 03:57:34;;;;;;;;;;;;;;;;;;4163840;28;19925;-57
2024/03/04 03:59:46;;;;;;;;;;;;;;;;;;4167191;28;20360;-56
2024/03/04 04:01:47;;;;;;;;;;;;;;;;;;4182960;28;19999;-55
2024/03/04 04:03:49;;;;;;;;;;;;;;;;;;4183033;28;19920;-57
2024/03/04 04:05:50;;;;;;;;;;;;;;;;;;4183459;28;20300;-56
2024/03/04 04:07:52;;;;;;;;;;;;;;;;;;4190102;28;19973;-57
2024/03/04 04:09:53;;;;;;;;;;;;;;;;;;4199530;28;19924;-57
2024/03/04 04:11:56;;;;;;;;;;;;;;;;;;4181070;28;19920;-56
2024/03/04 04:13:57;;;;;;;;;;;;;;;;;;4183054;28;19924;-56
2024/03/04 04:15:59;;;;;;;;;;;;;;;;;;4148686;28;19925;-57
2024/03/04 04:18:01;;;;;;;;;;;;;;;;;;4183110;28;19925;-56
2024/03/04 04:20:02;;;;;;;;;;;;;;;;;;4182740;28;19928;-57
2024/03/04 04:22:04;;;;;;;;;;;;;;;;;;4182576;28;19931;-58
2024/03/04 04:24:05;;;;;;;;;;;;;;;;;;4182598;28;19925;-57
2024/03/04 04:26:07;;;;;;;;;;;;;;;;;;4182626;28;19925;-56
2024/03/04 04:28:10;;;;;;;;;;;;;;;;;;4182567;28;19978;-57
2024/03/04 04:30:12;;;;;;;;;;;;;;;;;;4182616;28;20016;-58
2024/03/04 04:32:13;;;;;;;;;;;;;;;;;;4182453;28;20381;-58
2024/03/04 04:34:15;;;;;;;;;;;;;;;;;;4182679;28;19920;-57
2024/03/04 04:36:16;;;;;;;;;;;;;;;;;;4182502;28;19943;-57
2024/03/04 04:38:19;;;;;;;;;;;;;;;;;;4182488;28;19920;-58
2024/03/04 04:40:21;;;;;;;;;;;;;;;;;;4182319;28;20434;-56
2024/03/04 04:42:22;;;;;;;;;;;;;;;;;;4182541;28;20459;-56
2024/03/04 04:44:24;;;;;;;;;;;;;;;;;;4182067;28;20368;-57
2024/03/04 04:46:25;;;;;;;;;;;;;;;;;;4182283;28;20377;-56
2024/03/04 04:48:27;;;;;;;;;;;;;;;;;;4182460;28;20015;-56
2024/03/04 04:50:28;;;;;;;;;;;;;;;;;;4182230;28;19927;-57
2024/03/04 04:52:30;;;;;;;;;;;;;;;;;;4182087;28;19920;-57
2024/03/04 04:54:32;;;;;;;;;;;;;;;;;;4182120;28;20372;-57
2024/03/04 04:56:33;;;;;;;;;;;;;;;;;;4182253;28;19967;-56
2024/03/04 04:58:35;;;;;;;;;;;;;;;;;;4182186;28;20396;-57
2024/03/04 05:00:36;;;;;;;;;;;;;;;;;;4182032;28;19982;-57
2024/03/04 05:02:38;;;;;;;;;;;;;;;;;;4182255;28;20679;-56
2024/03/04 05:04:39;;;;;;;;;;;;;;;;;;4181651;28;19924;-57
2024/03/04 05:06:54;;;;;;;;;;;;;;;;;;4182422;28;19960;-57
2024/03/04 05:08:55;;;;;;;;;;;;;;;;;;4181162;28;19928;-55
2024/03/04 05:10:57;;;;;;;;;;;;;;;;;;4181854;28;19924;-56
2024/03/04 05:12:59;;;;;;;;;;;;;;;;;;4181927;28;19999;-57
2024/03/04 05:15:00;;;;;;;;;;;;;;;;;;4183758;28;19952;-58
2024/03/04 05:17:02;;;;;;;;;;;;;;;;;;4186038;28;20011;-58
2024/03/04 05:19:03;;;;;;;;;;;;;;;;;;4181973;28;19971;-56
2024/03/04 05:21:05;;;;;;;;;;;;;;;;;;4181326;28;19921;-57
2024/03/04 05:23:06;;;;;;;;;;;;;;;;;;4181580;28;19928;-57
2024/03/04 05:25:08;;;;;;;;;;;;;;;;;;4181638;28;19974;-58
2024/03/04 05:27:09;;;;;;;;;;;;;;;;;;4181920;28;19920;-57
2024/03/04 05:29:11;;;;;;;;;;;;;;;;;;4182093;28;20281;-57
2024/03/04 05:31:12;;;;;;;;;;;;;;;;;;4164294;28;19960;-57
2024/03/04 05:33:14;;;;;;;;;;;;;;;;;;4181761;28;20367;-57
2024/03/04 05:35:15;;;;;;;;;;;;;;;;;;4181754;28;19928;-57
2024/03/04 05:37:17;;;;;;;;;;;;;;;;;;4189703;28;19920;-56
2024/03/04 05:39:21;;;;;;;;;;;;;;;;;;4183049;28;19931;-56
2024/03/04 05:41:23;;;;;;;;;;;;;;;;;;4182159;28;20023;-56
2024/03/04 05:43:25;;;;;;;;;;;;;;;;;;4164154;28;19921;-57
2024/03/04 05:45:28;;;;;;;;;;;;;;;;;;4181755;28;20395;-57
2024/03/04 05:47:29;;;;;;;;;;;;;;;;;;4181868;28;20012;-56
2024/03/04 05:49:31;;;;;;;;;;;;;;;;;;4182018;28;19971;-56
2024/03/04 05:51:32;;;;;;;;;;;;;;;;;;4182124;28;19924;-57
2024/03/04 05:53:34;;;;;;;;;;;;;;;;;;4162889;28;19921;-57
2024/03/04 05:55:36;;;;;;;;;;;;;;;;;;4198328;28;19920;-56
2024/03/04 05:57:37;;;;;;;;;;;;;;;;;;4195595;28;19920;-57
2024/03/04 05:59:39;;;;;;;;;;;;;;;;;;4198387;28;19924;-56
2024/03/04 06:01:40;;;;;;;;;;;;;;;;;;4197962;28;19921;-57
2024/03/04 06:03:42;;;;;;;;;;;;;;;;;;4197850;28;20448;-57
2024/03/04 06:05:43;;;;;;;;;;;;;;;;;;4198297;28;19928;-57
2024/03/04 06:07:45;;;;;;;;;;;;;;;;;;4197895;28;19958;-57
2024/03/04 06:09:46;;;;;;;;;;;;;;;;;;4197893;28;19927;-57
2024/03/04 06:11:48;;;;;;;;;;;;;;;;;;4180492;28;19921;-57
2024/03/04 06:13:49;;;;;;;;;;;;;;;;;;4180116;28;19986;-57
2024/03/04 06:15:51;;;;;;;;;;;;;;;;;;4197962;28;20399;-56
2024/03/04 06:17:52;;;;;;;;;;;;;;;;;;4184147;28;19925;-57
2024/03/04 06:19:54;;;;;;;;;;;;;;;;;;4188968;28;19925;-62
2024/03/04 06:21:56;;;;;;;;;;;;;;;;;;4181222;28;19921;-62
2024/03/04 06:24:05;;;;;;;;;;;;;;;;;;4182766;28;19924;-62
2024/03/04 06:26:10;;;;;;;;;;;;;;;;;;4188861;28;19971;-62
2024/03/04 06:28:13;;;;;;;;;;;;;;;;;;4193009;28;19924;-62
2024/03/04 06:30:15;;;;;;;;;;;;;;;;;;4197759;28;19920;-62
2024/03/04 06:32:17;;;;;;;;;;;;;;;;;;4197622;28;19924;-62
2024/03/04 06:34:18;;;;;;;;;;;;;;;;;;4196198;28;19924;-63
2024/03/04 06:36:24;;;;;;;;;;;;;;;;;;4196197;28;20011;-62
2024/03/04 06:38:26;;;;;;;;;;;;;;;;;;4196340;28;20384;-62
2024/03/04 06:40:30;;;;;;;;;;;;;;;;;;4196102;28;19963;-62
2024/03/04 06:42:33;;;;;;;;;;;;;;;;;;4196365;28;19921;-62
2024/03/04 06:44:35;;;;;;;;;;;;;;;;;;4195830;28;19974;-62
2024/03/04 06:46:37;;;;;;;;;;;;;;;;;;4180307;28;19928;-61
2024/03/04 06:48:38;;;;;;;;;;;;;;;;;;4179766;28;19924;-62
2024/03/04 06:50:40;;;;;;;;;;;;;;;;;;4180963;28;19921;-62
2024/03/04 06:52:41;;;;;;;;;;;;;;;;;;4180894;28;19927;-62
2024/03/04 06:54:43;;;;;;;;;;;;;;;;;;4180868;28;19925;-62
2024/03/04 06:56:45;;;;;;;;;;;;;;;;;;4181229;28;20353;-62
2024/03/04 06:58:46;;;;;;;;;;;;;;;;;;4180960;28;19932;-62
2024/03/04 07:00:51;;;;;;;;;;;;;;;;;;4180862;28;19920;-63
2024/03/04 07:02:52;;;;;;;;;;;;;;;;;;4180876;28;19920;-62
2024/03/04 07:04:54;;;;;;;;;;;;;;;;;;4180649;28;19942;-62
2024/03/04 07:06:55;;;;;;;;;;;;;;;;;;4163262;28;20441;-63
2024/03/04 07:08:57;;;;;;;;;;;;;;;;;;4181085;28;19931;-62
2024/03/04 07:10:58;;;;;;;;;;;;;;;;;;4180761;28;19963;-63
2024/03/04 07:13:00;;;;;;;;;;;;;;;;;;4180970;28;19928;-63
2024/03/04 07:15:02;;;;;;;;;;;;;;;;;;4180889;28;19935;-62
2024/03/04 07:17:06;;;;;;;;;;;;;;;;;;4180763;28;19920;-62
2024/03/04 07:19:07;;;;;;;;;;;;;;;;;;4180777;28;19964;-62
2024/03/04 07:21:09;;;;;;;;;;;;;;;;;;4180893;28;19998;-62
2024/03/04 07:23:10;;;;;;;;;;;;;;;;;;4180587;28;19921;-62
2024/03/04 07:25:12;;;;;;;;;;;;;;;;;;4180567;28;19921;-62
2024/03/04 07:27:14;;;;;;;;;;;;;;;;;;4180921;28;19931;-63
2024/03/04 07:29:16;;;;;;;;;;;;;;;;;;4180724;28;20295;-62
2024/03/04 07:31:27;;;;;;;;;;;;;;;;;;4181947;28;19921;-62
2024/03/04 07:33:28;;;;;;;;;;;;;;;;;;4183857;28;20354;-62
2024/03/04 07:35:30;;;;;;;;;;;;;;;;;;4183749;28;20426;-62
2024/03/04 07:37:33;;;;;;;;;;;;;;;;;;4184134;28;20007;-62
2024/03/04 07:39:35;;;;;;;;;;;;;;;;;;4184019;28;19929;-62
2024/03/04 07:41:36;;;;;;;;;;;;;;;;;;4183715;28;19960;-62
2024/03/04 07:43:40;;;;;;;;;;;;;;;;;;4183707;28;20410;-62
2024/03/04 07:45:41;;;;;;;;;;;;;;;;;;4183513;28;19927;-61
2024/03/04 07:47:43;;;;;;;;;;;;;;;;;;4183629;28;19929;-63
2024/03/04 07:49:45;;;;;;;;;;;;;;;;;;4183687;28;19978;-65
2024/03/04 07:51:46;;;;;;;;;;;;;;;;;;4165954;28;20416;-65
2024/03/04 07:53:48;;;;;;;;;;;;;;;;;;4183470;28;19921;-65
2024/03/04 07:55:49;;;;;;;;;;;;;;;;;;4183568;28;19921;-65
2024/03/04 07:57:51;;;;;;;;;;;;;;;;;;4183574;28;20011;-65
2024/03/04 07:59:53;;;;;;;;;;;;;;;;;;4183644;28;19928;-65
2024/03/04 08:01:54;;;;;;;;;;;;;;;;;;4183486;28;20312;-65
2024/03/04 08:03:56;;;;;;;;;;;;;;;;;;4183324;28;19924;-65
2024/03/04 08:05:57;;;;;;;;;;;;;;;;;;4165611;28;20385;-65
2024/03/04 08:08:00;;;;;;;;;;;;;;;;;;4183502;28;19921;-65
2024/03/04 08:10:03;;;;;;;;;;;;;;;;;;4183175;28;20237;-65
2024/03/04 08:12:05;;;;;;;;;;;;;;;;;;4183266;28;19920;-65
2024/03/04 08:14:07;;;;;;;;;;;;;;;;;;4165325;28;19921;-65
2024/03/04 08:16:11;;;;;;;;;;;;;;;;;;4183124;28;20373;-65
2024/03/04 08:18:12;;;;;;;;;;;;;;;;;;4183605;28;19932;-65
2024/03/04 08:20:14;;;;;;;;;;;;;;;;;;4183148;28;19929;-65
2024/03/04 08:22:21;;;;;;;;;;;;;;;;;;4183162;28;19927;-64
2024/03/04 08:24:22;;;;;;;;;;;;;;;;;;4165278;28;19924;-65
2024/03/04 08:26:24;;;;;;;;;;;;;;;;;;4182948;28;19932;-65
2024/03/04 08:28:25;;;;;;;;;;;;;;;;;;4182987;28;19920;-65
2024/03/04 08:30:32;;;;;;;;;;;;;;;;;;4183216;28;19970;-65
2024/03/04 08:32:34;;;;;;;;;;;;;;;;;;4183031;28;19931;-65
2024/03/04 08:34:36;;;;;;;;;;;;;;;;;;4182778;28;19920;-64
2024/03/04 08:36:37;;;;;;;;;;;;;;;;;;4182901;28;19921;-65
2024/03/04 08:38:39;;;;;;;;;;;;;;;;;;4182760;28;19932;-65
2024/03/04 08:40:40;;;;;;;;;;;;;;;;;;4182900;28;19925;-65
2024/03/04 08:42:42;;;;;;;;;;;;;;;;;;4182272;28;19928;-65
2024/03/04 08:44:44;;;;;;;;;;;;;;;;;;4182532;28;19930;-65
2024/03/04 08:46:45;;;;;;;;;;;;;;;;;;4182755;28;19921;-65
2024/03/04 08:48:47;;;;;;;;;;;;;;;;;;4182785;28;20003;-65
2024/03/04 08:50:48;;;;;;;;;;;;;;;;;;4182898;28;19921;-65
2024/03/04 08:52:50;;;;;;;;;;;;;;;;;;4182727;28;19956;-65
2024/03/04 08:54:51;;;;;;;;;;;;;;;;;;4182534;28;19921;-65
2024/03/04 08:56:53;;;;;;;;;;;;;;;;;;4182599;28;20008;-65
2024/03/04 08:58:57;;;;;;;;;;;;;;;;;;4182778;28;19970;-65
2024/03/04 09:01:00;;;;;;;;;;;;;;;;;;4182538;28;19921;-65
2024/03/04 09:03:01;;;;;;;;;;;;;;;;;;4182536;28;20003;-65
2024/03/04 09:05:04;;;;;;;;;;;;;;;;;;4182302;28;19925;-65
2024/03/04 09:07:09;;;;;;;;;;;;;;;;;;4182426;28;19964;-65
2024/03/04 09:09:11;;;;;;;;;;;;;;;;;;4164909;28;19980;-65
2024/03/04 09:11:12;;;;;;;;;;;;;;;;;;4182299;28;19920;-65
2024/03/04 09:13:14;;;;;;;;;;;;;;;;;;4182752;28;19931;-65
2024/03/04 09:15:16;;;;;;;;;;;;;;;;;;4182050;28;19924;-65
2024/03/04 09:17:18;;;;;;;;;;;;;;;;;;4182447;28;20007;-65
2024/03/04 09:19:19;;;;;;;;;;;;;;;;;;4182259;28;20266;-65
2024/03/04 09:21:24;;;;;;;;;;;;;;;;;;4182093;28;20011;-65
2024/03/04 09:23:26;;;;;;;;;;;;;;;;;;4182523;28;19927;-65
2024/03/04 09:25:27;;;;;;;;;;;;;;;;;;4182082;28;19920;-65
2024/03/04 09:27:53;;;;;;;;;;;;;;;;;;4182058;28;19908;-65
2024/03/04 09:29:54;;;;;;;;;;;;;;;;;;4182117;28;19929;-65
2024/03/04 09:31:56;;;;;;;;;;;;;;;;;;4181945;28;19970;-65
2024/03/04 09:34:00;;;;;;;;;;;;;;;;;;4181763;28;19925;-65
2024/03/04 09:36:02;;;;;;;;;;;;;;;;;;4181950;28;19967;-65
2024/03/04 09:38:03;;;;;;;;;;;;;;;;;;4164338;28;19928;-65
2024/03/04 09:40:05;;;;;;;;;;;;;;;;;;4181923;28;20308;-65
2024/03/04 09:42:06;;;;;;;;;;;;;;;;;;4182005;28;19921;-65
2024/03/04 09:44:08;;;;;;;;;;;;;;;;;;4181730;28;19974;-65
2024/03/04 09:46:09;;;;;;;;;;;;;;;;;;4181841;28;19924;-65
2024/03/04 09:48:11;;;;;;;;;;;;;;;;;;4181722;28;19925;-65
2024/03/04 09:50:14;;;;;;;;;;;;;;;;;;4182024;28;19925;-65
2024/03/04 09:52:17;;;;;;;;;;;;;;;;;;4181962;28;19986;-65
2024/03/04 09:54:19;;;;;;;;;;;;;;;;;;4181137;28;20007;-65
2024/03/04 09:56:21;;;;;;;;;;;;;;;;;;4181834;28;19925;-65
2024/03/04 09:58:22;;;;;;;;;;;;;;;;;;4181613;28;19920;-65
2024/03/04 10:00:24;;;;;;;;;;;;;;;;;;4181659;28;19956;-65
2024/03/04 10:02:26;;;;;;;;;;;;;;;;;;4181599;28;19935;-65
2024/03/04 10:04:27;;;;;;;;;;;;;;;;;;4181507;28;19931;-65
2024/03/04 10:06:29;;;;;;;;;;;;;;;;;;4181731;28;20412;-65
2024/03/04 10:08:30;;;;;;;;;;;;;;;;;;4181405;28;19947;-65
2024/03/04 10:10:31;;;;;;;;;;;;;;;;;;4181488;28;19927;-65
2024/03/04 10:12:33;;;;;;;;;;;;;;;;;;4181422;28;19921;-65
2024/03/04 10:14:35;;;;;;;;;;;;;;;;;;4181227;28;19970;-65
2024/03/04 10:16:39;;;;;;;;;;;;;;;;;;4181294;28;19924;-65
2024/03/04 10:18:41;;;;;;;;;;;;;;;;;;4181135;28;19921;-66
2024/03/04 10:20:42;;;;;;;;;;;;;;;;;;4181249;28;19999;-65
2024/03/04 10:22:44;;;;;;;;;;;;;;;;;;4181478;28;20373;-66
2024/03/04 10:24:45;;;;;;;;;;;;;;;;;;4163513;28;19925;-65
2024/03/04 10:26:47;;;;;;;;;;;;;;;;;;4185031;28;19924;-65
2024/03/04 10:28:48;;;;;;;;;;;;;;;;;;4197952;28;20520;-66
2024/03/04 10:30:50;;;;;;;;;;;;;;;;;;4188481;28;19927;-65
2024/03/04 10:32:51;;;;;;;;;;;;;;;;;;4163462;28;19928;-65
2024/03/04 10:34:53;;;;;;;;;;;;;;;;;;4180847;28;19924;-65
2024/03/04 10:36:57;;;;;;;;;;;;;;;;;;4181166;28;20212;-66
2024/03/04 10:38:59;;;;;;;;;;;;;;;;;;4181127;28;20078;-64
2024/03/04 10:41:02;;;;;;;;;;;;;;;;;;4181342;28;19948;-64
2024/03/04 10:43:06;;;;;;;;;;;;;;;;;;4181052;28;19924;-65
2024/03/04 10:45:08;;;;;;;;;;;;;;;;;;4180727;28;19948;-66
2024/03/04 10:47:10;;;;;;;;;;;;;;;;;;4181025;28;20019;-65
2024/03/04 10:49:11;;;;;;;;;;;;;;;;;;4181076;28;19921;-66
2024/03/04 10:51:13;;;;;;;;;;;;;;;;;;4180966;28;20368;-65
2024/03/04 10:53:14;;;;;;;;;;;;;;;;;;4193286;28;19967;-65
2024/03/04 10:55:16;;;;;;;;;;;;;;;;;;4197122;28;19925;-65
2024/03/04 10:57:22;;;;;;;;;;;;;;;;;;4194629;28;19920;-65
2024/03/04 10:59:23;;;;;;;;;;;;;;;;;;4164500;28;19960;-65
2024/03/04 11:01:25;;;;;;;;;;;;;;;;;;4182068;28;19925;-66
2024/03/04 11:03:26;;;;;;;;;;;;;;;;;;4180856;28;19921;-65
2024/03/04 11:05:28;;;;;;;;;;;;;;;;;;4189666;28;20402;-65
2024/03/04 11:07:29;;;;;;;;;;;;;;;;;;4183184;28;19921;-65
2024/03/04 11:09:31;;;;;;;;;;;;;;;;;;4181892;28;20317;-65
2024/03/04 11:11:32;;;;;;;;;;;;;;;;;;4183833;28;19924;-66
2024/03/04 11:13:34;;;;;;;;;;;;;;;;;;4184122;28;19920;-65
2024/03/04 11:15:35;;;;;;;;;;;;;;;;;;4184022;28;20400;-65
2024/03/04 11:17:37;;;;;;;;;;;;;;;;;;4182840;28;19971;-65
2024/03/04 11:19:38;;;;;;;;;;;;;;;;;;4183470;28;19925;-65
2024/03/04 11:21:40;;;;;;;;;;;;;;;;;;4183925;28;19925;-65
2024/03/04 11:23:41;;;;;;;;;;;;;;;;;;4183405;28;19967;-65
2024/03/04 11:25:43;;;;;;;;;;;;;;;;;;4183769;28;19926;-65
2024/03/04 11:27:44;;;;;;;;;;;;;;;;;;4183534;28;19971;-65
2024/03/04 11:29:46;;;;;;;;;;;;;;;;;;4183763;28;19920;-64
2024/03/04 11:31:48;;;;;;;;;;;;;;;;;;4183974;28;19944;-65
2024/03/04 11:33:49;;;;;;;;;;;;;;;;;;4186064;28;19921;-64
2024/03/04 11:35:51;;;;;;;;;;;;;;;;;;4183764;28;19920;-65
2024/03/04 11:37:52;;;;;;;;;;;;;;;;;;4183876;28;19921;-65
2024/03/04 11:39:55;;;;;;;;;;;;;;;;;;4183809;28;19921;-65
2024/03/04 11:41:58;;;;;;;;;;;;;;;;;;4183828;28;20296;-65
2024/03/04 11:44:00;;;;;;;;;;;;;;;;;;4193746;28;19921;-65
2024/03/04 11:46:01;;;;;;;;;;;;;;;;;;4200490;28;20447;-66
2024/03/04 11:48:03;;;;;;;;;;;;;;;;;;4200287;28;20387;-65
2024/03/04 11:50:08;;;;;;;;;;;;;;;;;;4188766;28;19967;-65
2024/03/04 11:52:14;;;;;;;;;;;;;;;;;;4166128;28;19929;-65
2024/03/04 11:54:16;;;;;;;;;;;;;;;;;;4183933;28;19929;-65
2024/03/04 11:56:17;;;;;;;;;;;;;;;;;;4190435;28;19927;-65
2024/03/04 11:58:19;;;;;;;;;;;;;;;;;;4171329;28;19925;-65
2024/03/04 12:00:20;;;;;;;;;;;;;;;;;;4181831;28;19994;-65
2024/03/04 12:02:22;;;;;;;;;;;;;;;;;;4195635;28;20432;-65
2024/03/04 12:04:28;;;;;;;;;;;;;;;;;;4193790;28;19970;-65
2024/03/04 12:06:30;;;;;;;;;;;;;;;;;;4191809;28;20403;-66
2024/03/04 12:08:32;;;;;;;;;;;;;;;;;;4187565;28;19971;-65
2024/03/04 12:10:48;;;;;;;;;;;;;;;;;;4193492;28;20356;-65
2024/03/04 12:12:50;;;;;;;;;;;;;;;;;;4184314;28;19966;-66
2024/03/04 12:14:52;;;;;;;;;;;;;;;;;;4164251;28;19975;-65
2024/03/04 12:16:53;;;;;;;;;;;;;;;;;;4183927;28;19970;-66
2024/03/04 12:18:55;;;;;;;;;;;;;;;;;;4182427;28;20360;-66
2024/03/04 12:20:56;;;;;;;;;;;;;;;;;;4183320;28;19921;-65
2024/03/04 12:22:58;;;;;;;;;;;;;;;;;;4185280;28;19921;-66
2024/03/04 12:25:00;;;;;;;;;;;;;;;;;;4182953;28;19970;-65
2024/03/04 12:27:02;;;;;;;;;;;;;;;;;;4183272;28;19928;-65
2024/03/04 12:29:04;;;;;;;;;;;;;;;;;;4186237;28;19921;-66
2024/03/04 12:31:05;;;;;;;;;;;;;;;;;;4193942;28;19978;-61
2024/03/04 12:33:06;;;;;;;;;;;;;;;;;;4180576;28;20203;-62
2024/03/04 12:35:08;;;;;;;;;;;;;;;;;;4183057;28;19920;-60
2024/03/04 12:37:09;;;;;;;;;;;;;;;;;;4182918;28;19925;-62
2024/03/04 12:39:16;;;;;;;;;;;;;;;;;;4182988;28;19935;-61
2024/03/04 12:41:17;;;;;;;;;;;;;;;;;;4182882;28;19921;-61
2024/03/04 12:43:19;;;;;;;;;;;;;;;;;;4182631;28;20081;-49
2024/03/04 12:45:22;;;;;;;;;;;;;;;;;;4187661;28;20261;-53
2024/03/04 12:47:23;;;;;;;;;;;;;;;;;;4181992;28;19921;-51
2024/03/04 12:49:25;;;;;;;;;;;;;;;;;;4199718;28;19928;-50
2024/03/04 12:51:30;;;;;;;;;;;;;;;;;;4187729;28;19921;-53
2024/03/04 12:53:32;;;;;;;;;;;;;;;;;;4199544;28;20295;-51
2024/03/04 12:55:33;;;;;;;;;;;;;;;;;;4181747;28;19920;-51
2024/03/04 12:57:35;;;;;;;;;;;;;;;;;;4188242;28;19976;-51
2024/03/04 12:59:36;;;;;;;;;;;;;;;;;;4182671;28;19925;-51
2024/03/04 13:01:39;;;;;;;;;;;;;;;;;;4182811;28;19924;-49
2024/03/04 13:03:41;;;;;;;;;;;;;;;;;;4182284;28;20366;-48
2024/03/04 13:05:43;;;;;;;;;;;;;;;;;;4182562;28;20007;-48
2024/03/04 13:07:44;;;;;;;;;;;;;;;;;;4181390;28;20007;-50
2024/03/04 13:09:46;;;;;;;;;;;;;;;;;;4182803;28;19941;-50
2024/03/04 13:11:52;;;;;;;;;;;;;;;;;;4182621;28;19971;-50
2024/03/04 13:13:54;;;;;;;;;;;;;;;;;;4182400;28;19930;-49
2024/03/04 13:15:55;;;;;;;;;;;;;;;;;;4182179;28;19928;-51
2024/03/04 13:17:57;;;;;;;;;;;;;;;;;;4182175;28;19924;-51
2024/03/04 13:19:58;;;;;;;;;;;;;;;;;;4182344;28;20301;-49
2024/03/04 13:22:00;;;;;;;;;;;;;;;;;;4182304;28;19935;-52
2024/03/04 13:24:02;;;;;;;;;;;;;;;;;;4182179;28;20292;-49
2024/03/04 13:26:04;;;;;;;;;;;;;;;;;;4186441;28;20012;-51
2024/03/04 13:28:05;;;;;;;;;;;;;;;;;;4187124;28;19920;-50
2024/03/04 13:30:07;;;;;;;;;;;;;;;;;;4180334;28;19924;-53
2024/03/04 13:32:09;;;;;;;;;;;;;;;;;;4178024;28;19921;-50
2024/03/04 13:34:11;;;;;;;;;;;;;;;;;;4184350;28;19951;-51
2024/03/04 13:36:13;;;;;;;;;;;;;;;;;;4184011;28;19925;-59
2024/03/04 13:38:14;;;;;;;;;;;;;;;;;;4187344;28;19987;-57
2024/03/04 13:40:16;;;;;;;;;;;;;;;;;;4167993;28;19928;-60
2024/03/04 13:42:18;;;;;;;;;;;;;;;;;;4191702;28;20240;-60
2024/03/04 13:44:20;;;;;;;;;;;;;;;;;;4181594;28;19971;-59
2024/03/04 13:46:22;;;;;;;;;;;;;;;;;;4181814;28;19928;-60
2024/03/04 13:48:23;;;;;;;;;;;;;;;;;;4181708;28;19921;-60
2024/03/04 13:50:25;;;;;;;;;;;;;;;;;;4186176;28;19927;-60
2024/03/04 13:52:27;;;;;;;;;;;;;;;;;;4196536;28;19920;-60
2024/03/04 13:54:30;;;;;;;;;;;;;;;;;;4198149;28;20019;-60